EZY24YG EGNM-EGAA
Flight info
| Callsign | EZY24YG |
|---|---|
| Flight time | N/A |
| Altitude | 24000 |
| Route | NELSA DCT CROFT Y70 KOLID L70 GUNTU Z196 DIGMA M146 IPSET P6 BELZU |
| Aircraft | A20N/M-SDE2E3FGHIRWXY/LB1 |
Departure
| Time | 2026-05-03 22:59 |
|---|---|
| Airport | Leeds Bradford Airport (EGNM) |
Arrival
| Time | N/A |
|---|---|
| Airport | Belfast International Airport (EGAA) |
| Time | Latitude | Longitude | Altitude | Speed | Heading |
|---|---|---|---|---|---|
| 2026-05-03 22:12 | 53.86882 | -1.65691 | 666 ft | 0 kts | 0° |
| 2026-05-03 22:44 | 53.86872 | -1.65692 | 669 ft | 2 kts | 6° |
| 2026-05-03 22:44 | 53.86857 | -1.65693 | 670 ft | 2 kts | 359° |
| 2026-05-03 22:45 | 53.86842 | -1.65693 | 670 ft | 2 kts | 1° |
| 2026-05-03 22:45 | 53.86828 | -1.65694 | 670 ft | 2 kts | 1° |
| 2026-05-03 22:45 | 53.86819 | -1.65694 | 669 ft | 0 kts | 358° |
| 2026-05-03 22:45 | 53.86814 | -1.65693 | 669 ft | 0 kts | 329° |
| 2026-05-03 22:46 | 53.86809 | -1.65687 | 669 ft | 1 kts | 299° |
| 2026-05-03 22:46 | 53.86808 | -1.65669 | 669 ft | 2 kts | 245° |
| 2026-05-03 22:46 | 53.86815 | -1.65648 | 668 ft | 1 kts | 244° |
| 2026-05-03 22:46 | 53.86816 | -1.65633 | 667 ft | 0 kts | 280° |
| 2026-05-03 22:47 | 53.86814 | -1.65654 | 668 ft | 3 kts | 265° |
| 2026-05-03 22:47 | 53.86816 | -1.65687 | 669 ft | 2 kts | 297° |
| 2026-05-03 22:47 | 53.86829 | -1.65694 | 669 ft | 0 kts | 7° |
| 2026-05-03 22:47 | 53.86820 | -1.65694 | 669 ft | 1 kts | 20° |
| 2026-05-03 22:48 | 53.86810 | -1.65710 | 670 ft | 2 kts | 68° |
| 2026-05-03 22:48 | 53.86809 | -1.65735 | 670 ft | 2 kts | 98° |
| 2026-05-03 22:48 | 53.86810 | -1.65760 | 671 ft | 2 kts | 89° |
| 2026-05-03 22:48 | 53.86810 | -1.65785 | 671 ft | 2 kts | 91° |
| 2026-05-03 22:49 | 53.86811 | -1.65811 | 672 ft | 2 kts | 91° |
| 2026-05-03 22:49 | 53.86811 | -1.65835 | 672 ft | 1 kts | 91° |
| 2026-05-03 22:49 | 53.86811 | -1.65837 | 673 ft | 0 kts | 91° |
| 2026-05-03 22:54 | 53.86811 | -1.65833 | 672 ft | 1 kts | 91° |
| 2026-05-03 22:54 | 53.86801 | -1.65786 | 671 ft | 6 kts | 134° |
| 2026-05-03 22:54 | 53.86762 | -1.65740 | 671 ft | 7 kts | 136° |
| 2026-05-03 22:54 | 53.86739 | -1.65641 | 669 ft | 11 kts | 95° |
| 2026-05-03 22:55 | 53.86733 | -1.65474 | 663 ft | 16 kts | 109° |
| 2026-05-03 22:55 | 53.86626 | -1.65431 | 664 ft | 15 kts | 184° |
| 2026-05-03 22:55 | 53.86526 | -1.65442 | 668 ft | 13 kts | 183° |
| 2026-05-03 22:55 | 53.86448 | -1.65450 | 671 ft | 8 kts | 184° |
| 2026-05-03 22:56 | 53.86393 | -1.65456 | 672 ft | 7 kts | 183° |
| 2026-05-03 22:56 | 53.86366 | -1.65459 | 673 ft | 2 kts | 183° |
| 2026-05-03 22:56 | 53.86341 | -1.65461 | 673 ft | 5 kts | 183° |
| 2026-05-03 22:56 | 53.86280 | -1.65467 | 676 ft | 10 kts | 182° |
| 2026-05-03 22:57 | 53.86235 | -1.65495 | 679 ft | 6 kts | 250° |
| 2026-05-03 22:57 | 53.86255 | -1.65548 | 680 ft | 0 kts | 319° |
| 2026-05-03 22:57 | 53.86277 | -1.65580 | 681 ft | 23 kts | 317° |
| 2026-05-03 22:58 | 53.86568 | -1.66028 | 683 ft | 80 kts | 318° |
| 2026-05-03 22:58 | 53.87030 | -1.66731 | 675 ft | 94 kts | 319° |
| 2026-05-03 22:58 | 53.87601 | -1.67557 | 747 ft | 130 kts | 324° |
| 2026-05-03 22:58 | 53.88341 | -1.68614 | 1263 ft | 150 kts | 326° |
| 2026-05-03 22:59 | 53.89116 | -1.69836 | 2069 ft | 159 kts | 315° |
| 2026-05-03 22:59 | 53.89802 | -1.71306 | 2903 ft | 165 kts | 319° |
| 2026-05-03 22:59 | 53.90707 | -1.72400 | 3697 ft | 163 kts | 341° |
| 2026-05-03 22:59 | 53.91765 | -1.73184 | 4277 ft | 177 kts | 328° |
| 2026-05-03 23:00 | 53.92455 | -1.75003 | 4722 ft | 200 kts | 281° |
| 2026-05-03 23:00 | 53.92178 | -1.77394 | 5066 ft | 220 kts | 243° |
| 2026-05-03 23:00 | 53.91259 | -1.79616 | 5342 ft | 243 kts | 227° |
| 2026-05-03 23:00 | 53.89988 | -1.81629 | 5747 ft | 260 kts | 219° |
| 2026-05-03 23:01 | 53.88518 | -1.83520 | 6162 ft | 275 kts | 217° |
| 2026-05-03 23:01 | 53.87020 | -1.85570 | 6700 ft | 278 kts | 222° |
| 2026-05-03 23:01 | 53.85636 | -1.87843 | 6957 ft | 278 kts | 227° |
| 2026-05-03 23:01 | 53.84449 | -1.90393 | 6950 ft | 276 kts | 246° |
| 2026-05-03 23:02 | 53.84116 | -1.93547 | 6959 ft | 274 kts | 277° |
| 2026-05-03 23:02 | 53.84716 | -1.96530 | 6970 ft | 272 kts | 301° |
| 2026-05-03 23:02 | 53.85695 | -1.99274 | 6967 ft | 273 kts | 302° |
| 2026-05-03 23:02 | 53.86449 | -2.02217 | 6951 ft | 275 kts | 281° |
| 2026-05-03 23:03 | 53.86551 | -2.05468 | 6958 ft | 276 kts | 269° |
| 2026-05-03 23:03 | 53.86470 | -2.08690 | 6960 ft | 276 kts | 268° |
| 2026-05-03 23:03 | 53.86396 | -2.11973 | 6984 ft | 283 kts | 269° |
| 2026-05-03 23:03 | 53.86355 | -2.15397 | 7587 ft | 300 kts | 269° |
| 2026-05-03 23:04 | 53.85921 | -2.18755 | 8795 ft | 296 kts | 243° |
| 2026-05-03 23:04 | 53.84629 | -2.21322 | 9991 ft | 291 kts | 222° |
| 2026-05-03 23:04 | 53.83117 | -2.23501 | 10894 ft | 294 kts | 222° |
| 2026-05-03 23:04 | 53.81566 | -2.25753 | 11726 ft | 299 kts | 222° |
| 2026-05-03 23:05 | 53.79997 | -2.28061 | 12574 ft | 303 kts | 223° |
| 2026-05-03 23:05 | 53.78411 | -2.30417 | 13426 ft | 306 kts | 223° |
| 2026-05-03 23:05 | 53.76820 | -2.32791 | 14253 ft | 309 kts | 223° |
| 2026-05-03 23:05 | 53.75214 | -2.35195 | 15058 ft | 313 kts | 223° |
| 2026-05-03 23:06 | 53.73589 | -2.37626 | 15865 ft | 316 kts | 223° |
| 2026-05-03 23:06 | 53.71940 | -2.40094 | 16634 ft | 320 kts | 223° |
| 2026-05-03 23:06 | 53.70272 | -2.42585 | 17398 ft | 323 kts | 223° |
| 2026-05-03 23:06 | 53.68611 | -2.45063 | 18139 ft | 326 kts | 223° |
| 2026-05-03 23:07 | 53.66895 | -2.47620 | 18882 ft | 330 kts | 223° |
| 2026-05-03 23:07 | 53.65172 | -2.50187 | 19600 ft | 333 kts | 223° |
| 2026-05-03 23:07 | 53.63509 | -2.52895 | 20280 ft | 337 kts | 231° |
| 2026-05-03 23:07 | 53.62184 | -2.56103 | 20942 ft | 340 kts | 243° |
| 2026-05-03 23:08 | 53.61188 | -2.59755 | 21594 ft | 344 kts | 249° |
| 2026-05-03 23:08 | 53.60300 | -2.63451 | 22239 ft | 347 kts | 249° |
| 2026-05-03 23:08 | 53.59393 | -2.67266 | 22884 ft | 351 kts | 248° |
| 2026-05-03 23:08 | 53.58476 | -2.71072 | 23506 ft | 355 kts | 249° |
| 2026-05-03 23:09 | 53.57763 | -2.75020 | 23899 ft | 358 kts | 259° |
| 2026-05-03 23:09 | 53.57532 | -2.79220 | 23965 ft | 358 kts | 271° |
| 2026-05-03 23:09 | 53.57692 | -2.83365 | 23972 ft | 357 kts | 276° |
| 2026-05-03 23:09 | 53.57925 | -2.87471 | 23972 ft | 357 kts | 276° |
| 2026-05-03 23:10 | 53.58160 | -2.91641 | 23973 ft | 357 kts | 276° |
| 2026-05-03 23:10 | 53.58380 | -2.95807 | 23971 ft | 356 kts | 276° |
| 2026-05-03 23:10 | 53.58584 | -2.99899 | 23974 ft | 354 kts | 275° |
| 2026-05-03 23:10 | 53.58785 | -3.04020 | 23973 ft | 354 kts | 275° |
| 2026-05-03 23:11 | 53.58983 | -3.08166 | 23973 ft | 354 kts | 275° |
| 2026-05-03 23:11 | 53.59178 | -3.12272 | 23973 ft | 354 kts | 276° |
| 2026-05-03 23:11 | 53.59446 | -3.16339 | 23974 ft | 354 kts | 279° |
| 2026-05-03 23:11 | 53.59858 | -3.20416 | 23974 ft | 354 kts | 282° |
| 2026-05-03 23:12 | 53.60353 | -3.24462 | 23974 ft | 354 kts | 283° |
| 2026-05-03 23:12 | 53.60860 | -3.28520 | 23974 ft | 353 kts | 283° |
| 2026-05-03 23:12 | 53.61366 | -3.32583 | 23973 ft | 353 kts | 283° |
| 2026-05-03 23:12 | 53.61745 | -3.35639 | 23973 ft | 353 kts | 283° |
| 2026-05-03 23:13 | 53.62238 | -3.39644 | 23973 ft | 353 kts | 283° |
| 2026-05-03 23:13 | 53.62553 | -3.42203 | 23974 ft | 353 kts | 283° |
| 2026-05-03 23:13 | 53.62899 | -3.45037 | 23974 ft | 353 kts | 283° |
| 2026-05-03 23:13 | 53.63393 | -3.49078 | 23973 ft | 353 kts | 283° |
| 2026-05-03 23:14 | 53.63888 | -3.53145 | 23974 ft | 353 kts | 283° |
| 2026-05-03 23:14 | 53.64389 | -3.57180 | 23974 ft | 353 kts | 285° |
| 2026-05-03 23:14 | 53.65111 | -3.61090 | 23974 ft | 352 kts | 293° |
| 2026-05-03 23:14 | 53.66132 | -3.64778 | 23975 ft | 351 kts | 301° |
| 2026-05-03 23:15 | 53.67442 | -3.68273 | 23975 ft | 350 kts | 306° |
| 2026-05-03 23:15 | 53.68838 | -3.71621 | 23975 ft | 350 kts | 306° |
| 2026-05-03 23:15 | 53.70252 | -3.74965 | 23976 ft | 350 kts | 307° |
| 2026-05-03 23:15 | 53.71656 | -3.78294 | 23974 ft | 349 kts | 306° |
| 2026-05-03 23:16 | 53.73037 | -3.81590 | 23974 ft | 349 kts | 306° |
| 2026-05-03 23:16 | 53.74436 | -3.84940 | 23974 ft | 349 kts | 306° |
| 2026-05-03 23:16 | 53.75835 | -3.88300 | 23976 ft | 349 kts | 306° |
| 2026-05-03 23:16 | 53.77224 | -3.91647 | 23974 ft | 349 kts | 306° |
| 2026-05-03 23:17 | 53.78604 | -3.94977 | 23975 ft | 349 kts | 307° |
| 2026-05-03 23:17 | 53.79992 | -3.98330 | 23975 ft | 349 kts | 307° |
| 2026-05-03 23:17 | 53.81388 | -4.01710 | 23976 ft | 349 kts | 307° |
| 2026-05-03 23:17 | 53.82775 | -4.05072 | 23976 ft | 349 kts | 306° |
| 2026-05-03 23:18 | 53.84145 | -4.08399 | 23976 ft | 349 kts | 306° |
| 2026-05-03 23:18 | 53.85530 | -4.11766 | 23976 ft | 349 kts | 307° |
| 2026-05-03 23:18 | 53.86913 | -4.15132 | 23977 ft | 349 kts | 307° |
| 2026-05-03 23:18 | 53.88303 | -4.18519 | 23976 ft | 349 kts | 307° |
| 2026-05-03 23:19 | 53.89671 | -4.21862 | 23978 ft | 349 kts | 307° |
| 2026-05-03 23:19 | 53.91059 | -4.25260 | 23976 ft | 348 kts | 307° |
| 2026-05-03 23:19 | 53.92429 | -4.28617 | 23977 ft | 348 kts | 307° |
| 2026-05-03 23:19 | 53.93796 | -4.31970 | 23977 ft | 348 kts | 307° |
| 2026-05-03 23:20 | 53.95164 | -4.35325 | 23978 ft | 347 kts | 307° |
| 2026-05-03 23:20 | 53.96534 | -4.38697 | 23974 ft | 347 kts | 307° |
| 2026-05-03 23:20 | 53.97904 | -4.42068 | 23979 ft | 347 kts | 307° |
| 2026-05-03 23:20 | 53.99273 | -4.45443 | 23982 ft | 347 kts | 307° |
| 2026-05-03 23:21 | 54.00629 | -4.48769 | 23978 ft | 347 kts | 308° |
| 2026-05-03 23:21 | 54.02092 | -4.52057 | 23971 ft | 346 kts | 311° |
| 2026-05-03 23:21 | 54.03635 | -4.55128 | 23977 ft | 346 kts | 314° |
| 2026-05-03 23:21 | 54.05265 | -4.58172 | 23981 ft | 346 kts | 315° |
| 2026-05-03 23:22 | 54.08510 | -4.64180 | 23969 ft | 345 kts | 315° |
| 2026-05-03 23:22 | 54.10135 | -4.67197 | 23943 ft | 346 kts | 314° |
| 2026-05-03 23:22 | 54.11753 | -4.70209 | 23700 ft | 344 kts | 314° |
| 2026-05-03 23:23 | 54.13351 | -4.73186 | 23469 ft | 343 kts | 314° |
| 2026-05-03 23:23 | 54.14954 | -4.76177 | 23149 ft | 342 kts | 314° |
| 2026-05-03 23:23 | 54.16551 | -4.79163 | 22808 ft | 340 kts | 314° |
| 2026-05-03 23:23 | 54.18133 | -4.82125 | 22449 ft | 338 kts | 314° |
| 2026-05-03 23:24 | 54.19704 | -4.85070 | 22077 ft | 336 kts | 314° |
| 2026-05-03 23:24 | 54.21259 | -4.87989 | 21709 ft | 334 kts | 314° |
| 2026-05-03 23:24 | 54.22817 | -4.90917 | 21324 ft | 332 kts | 314° |
| 2026-05-03 23:24 | 54.24353 | -4.93805 | 20939 ft | 329 kts | 314° |
| 2026-05-03 23:25 | 54.25877 | -4.96678 | 20561 ft | 327 kts | 314° |
| 2026-05-03 23:25 | 54.27406 | -4.99564 | 20187 ft | 325 kts | 314° |
| 2026-05-03 23:25 | 54.28900 | -5.02383 | 19825 ft | 323 kts | 314° |
| 2026-05-03 23:25 | 54.30399 | -5.05217 | 19460 ft | 321 kts | 314° |
| 2026-05-03 23:26 | 54.31889 | -5.08038 | 19099 ft | 318 kts | 313° |
| 2026-05-03 23:26 | 54.33355 | -5.10816 | 18739 ft | 317 kts | 313° |
| 2026-05-03 23:26 | 54.34829 | -5.13616 | 18366 ft | 315 kts | 314° |
| 2026-05-03 23:26 | 54.36276 | -5.16368 | 18002 ft | 313 kts | 314° |
| 2026-05-03 23:27 | 54.37727 | -5.19127 | 17634 ft | 311 kts | 313° |
| 2026-05-03 23:27 | 54.39177 | -5.21890 | 17259 ft | 310 kts | 314° |
| 2026-05-03 23:27 | 54.40608 | -5.24617 | 16896 ft | 308 kts | 314° |
| 2026-05-03 23:27 | 54.42023 | -5.27319 | 16533 ft | 307 kts | 314° |
| 2026-05-03 23:28 | 54.43449 | -5.30046 | 16163 ft | 305 kts | 314° |
| 2026-05-03 23:28 | 54.44854 | -5.32730 | 15806 ft | 304 kts | 314° |
| 2026-05-03 23:28 | 54.46287 | -5.35352 | 15445 ft | 302 kts | 315° |
| 2026-05-03 23:28 | 54.47748 | -5.37960 | 15086 ft | 300 kts | 315° |
| 2026-05-03 23:29 | 54.49184 | -5.40519 | 14740 ft | 298 kts | 315° |
| 2026-05-03 23:29 | 54.50604 | -5.43068 | 14398 ft | 296 kts | 313° |
| 2026-05-03 23:29 | 54.51804 | -5.45959 | 14043 ft | 296 kts | 300° |
| 2026-05-03 23:29 | 54.52604 | -5.49185 | 13691 ft | 296 kts | 291° |
| 2026-05-03 23:30 | 54.53236 | -5.52510 | 13342 ft | 295 kts | 290° |
| 2026-05-03 23:30 | 54.53846 | -5.55851 | 12984 ft | 293 kts | 290° |
| 2026-05-03 23:30 | 54.54458 | -5.59200 | 12619 ft | 292 kts | 290° |
| 2026-05-03 23:30 | 54.55069 | -5.62535 | 12230 ft | 292 kts | 290° |
| 2026-05-03 23:31 | 54.55687 | -5.65883 | 11702 ft | 295 kts | 289° |
| 2026-05-03 23:31 | 54.56305 | -5.69228 | 11174 ft | 298 kts | 289° |
| 2026-05-03 23:31 | 54.56934 | -5.72629 | 10640 ft | 301 kts | 289° |
| 2026-05-03 23:31 | 54.57567 | -5.76057 | 10094 ft | 303 kts | 289° |
| 2026-05-03 23:32 | 54.58209 | -5.79539 | 9553 ft | 305 kts | 289° |
| 2026-05-03 23:32 | 54.58849 | -5.83018 | 9025 ft | 306 kts | 289° |
| 2026-05-03 23:32 | 54.59489 | -5.86505 | 8497 ft | 307 kts | 289° |
| 2026-05-03 23:32 | 54.60125 | -5.89974 | 7974 ft | 308 kts | 289° |
| 2026-05-03 23:33 | 54.60772 | -5.93506 | 7440 ft | 308 kts | 289° |
| 2026-05-03 23:33 | 54.61412 | -5.97009 | 6909 ft | 308 kts | 289° |
| 2026-05-03 23:33 | 54.62049 | -6.00505 | 6378 ft | 308 kts | 289° |
| 2026-05-03 23:33 | 54.62688 | -6.04018 | 5846 ft | 308 kts | 289° |
| 2026-05-03 23:34 | 54.63326 | -6.07539 | 5310 ft | 307 kts | 289° |
| 2026-05-03 23:34 | 54.63958 | -6.11032 | 4779 ft | 307 kts | 289° |
| 2026-05-03 23:34 | 54.64580 | -6.14472 | 4503 ft | 297 kts | 289° |
| 2026-05-03 23:34 | 54.65168 | -6.17826 | 4368 ft | 283 kts | 285° |
| 2026-05-03 23:35 | 54.65176 | -6.21108 | 4217 ft | 276 kts | 255° |
| 2026-05-03 23:35 | 54.64151 | -6.23803 | 4081 ft | 268 kts | 219° |
| 2026-05-03 23:35 | 54.62503 | -6.24949 | 3944 ft | 256 kts | 182° |
| 2026-05-03 23:35 | 54.60778 | -6.24494 | 3823 ft | 244 kts | 164° |
| 2026-05-03 23:36 | 54.59166 | -6.23843 | 3689 ft | 235 kts | 168° |
| 2026-05-03 23:36 | 54.57584 | -6.23435 | 3556 ft | 227 kts | 173° |
| 2026-05-03 23:36 | 54.56025 | -6.23238 | 3427 ft | 225 kts | 176° |
| 2026-05-03 23:36 | 54.54446 | -6.23165 | 3302 ft | 226 kts | 178° |
| 2026-05-03 23:37 | 54.52888 | -6.23151 | 3182 ft | 225 kts | 179° |
| 2026-05-03 23:37 | 54.51336 | -6.23161 | 2998 ft | 220 kts | 179° |
| 2026-05-03 23:37 | 54.49829 | -6.23177 | 2807 ft | 216 kts | 179° |
| 2026-05-03 23:37 | 54.48355 | -6.22867 | 2602 ft | 208 kts | 153° |
| 2026-05-03 23:38 | 54.47290 | -6.21385 | 2491 ft | 191 kts | 118° |
| 2026-05-03 23:38 | 54.46848 | -6.19405 | 2470 ft | 169 kts | 91° |
| 2026-05-03 23:38 | 54.46951 | -6.17525 | 2536 ft | 156 kts | 69° |
| 2026-05-03 23:38 | 54.47468 | -6.15927 | 2502 ft | 152 kts | 47° |
| 2026-05-03 23:39 | 54.48301 | -6.14821 | 2489 ft | 150 kts | 25° |
| 2026-05-03 23:39 | 54.49301 | -6.14354 | 2518 ft | 151 kts | 6° |
| 2026-05-03 23:39 | 54.50357 | -6.14461 | 2509 ft | 152 kts | 352° |